Time;durP1;ratioP1;P1;durP2;ratioP2;P2;SDS_P1;SDS_P2;PMS_P1;PMS_P2;Temp;Humidity;BMP_temperature;BMP_pressure;BME280_temperature;BME280_humidity;BME280_pressure;Samples;Min_cycle;Max_cycle;Signal;HPM_P1;HPM_P2
2023/01/07 00:01:24;;;;;;;0.97;0.97;;;10.60;99.90;;;10.63;88.27;101147.63;5002957;28;20636;-66
2023/01/07 00:03:53;;;;;;;0.93;0.93;;;10.50;99.90;;;10.65;88.12;101148.38;5009646;28;21280;-66
2023/01/07 00:06:27;;;;;;;0.90;0.90;;;10.60;99.90;;;10.64;87.75;101146.72;4992330;28;20672;-65
2023/01/07 00:08:55;;;;;;;0.90;0.90;;;10.60;99.90;;;10.62;87.28;101147.75;5007097;28;20638;-65
2023/01/07 00:11:26;;;;;;;0.97;0.97;;;10.60;99.90;;;10.61;87.65;101135.63;4983340;28;21200;-65
2023/01/07 00:13:55;;;;;;;1.37;0.97;;;10.50;99.90;;;10.60;87.87;101147.00;5009190;28;20660;-66
2023/01/07 00:16:26;;;;;;;0.80;0.80;;;10.50;99.90;;;10.56;87.52;101135.09;5029748;28;21230;-66
2023/01/07 00:18:55;;;;;;;1.27;0.97;;;10.50;99.90;;;10.52;88.15;101134.44;5022544;28;21221;-65
2023/01/07 00:21:24;;;;;;;1.33;1.30;;;10.50;99.90;;;10.52;87.30;101137.03;5004957;28;20631;-66
2023/01/07 00:23:57;;;;;;;1.23;1.20;;;10.40;99.90;;;10.49;88.10;101134.66;4996250;28;21095;-66
2023/01/07 00:26:28;;;;;;;0.70;0.70;;;10.40;99.90;;;10.51;87.78;101131.94;4990233;28;20633;-66
2023/01/07 00:28:56;;;;;;;1.03;1.00;;;10.40;99.90;;;10.52;87.44;101129.22;5017209;28;20732;-65
2023/01/07 00:31:27;;;;;;;1.10;1.10;;;10.40;99.90;;;10.53;87.86;101125.69;5020738;28;20631;-65
2023/01/07 00:36:25;;;;;;;0.87;0.87;;;10.50;99.90;;;10.60;86.89;101118.31;4995730;28;20629;-66
2023/01/07 00:39:18;;;;;;;0.77;0.77;;;10.50;99.90;;;10.65;86.77;101122.28;4994778;28;20664;-65
2023/01/07 00:44:32;;;;;;;0.87;0.87;;;10.60;99.90;;;10.60;87.24;101113.94;5008946;28;20703;-65
2023/01/07 00:47:00;;;;;;;0.83;0.83;;;10.50;99.90;;;10.57;87.85;101113.25;4976735;28;20617;-65
2023/01/07 00:49:27;;;;;;;1.53;1.17;;;10.50;99.90;;;10.53;87.69;101106.56;5000278;28;21197;-65
2023/01/07 00:51:54;;;;;;;0.80;0.80;;;10.40;99.90;;;10.55;86.92;101117.75;5002067;28;21015;-65
2023/01/07 00:54:21;;;;;;;0.60;0.60;;;10.50;99.90;;;10.55;87.14;101108.16;5001410;28;20665;-65
2023/01/07 00:56:48;;;;;;;2.03;0.93;;;10.50;99.90;;;10.54;87.60;101101.25;4989298;28;20643;-65
2023/01/07 00:59:15;;;;;;;1.40;1.30;;;10.50;99.90;;;10.54;87.19;101100.44;5021312;28;20700;-65
2023/01/07 01:01:42;;;;;;;1.03;1.03;;;10.50;99.90;;;10.54;88.33;101101.25;5018164;28;20636;-64
2023/01/07 01:04:09;;;;;;;1.03;0.93;;;10.50;99.90;;;10.53;87.98;101091.75;5017271;28;20641;-64
2023/01/07 01:06:36;;;;;;;1.10;1.10;;;10.50;99.90;;;10.53;88.12;101089.16;5012159;28;20635;-65
2023/01/07 01:09:03;;;;;;;1.23;1.13;;;10.40;99.90;;;10.51;88.08;101098.84;5013476;28;20621;-64
2023/01/07 01:11:30;;;;;;;0.90;0.90;;;10.40;99.90;;;10.49;88.06;101090.28;5012186;28;20633;-65
2023/01/07 01:13:56;;;;;;;0.90;0.90;;;10.40;99.90;;;10.50;87.91;101098.97;5013621;28;20645;-66
2023/01/07 01:16:23;;;;;;;1.00;1.00;;;10.40;99.90;;;10.49;88.04;101092.06;5008548;28;20660;-66
2023/01/07 01:18:50;;;;;;;0.83;0.83;;;10.40;99.90;;;10.50;88.42;101096.34;5032897;28;20656;-66
2023/01/07 01:21:18;;;;;;;1.00;0.90;;;10.40;99.90;;;10.52;87.75;101089.25;5010314;28;20623;-66
2023/01/07 01:23:45;;;;;;;1.30;1.03;;;10.40;99.90;;;10.53;87.63;101085.69;5011781;28;20664;-66
2023/01/07 01:26:15;;;;;;;0.93;0.93;;;10.40;99.90;;;10.52;87.55;101091.88;5015812;28;20687;-66
2023/01/07 01:28:43;;;;;;;1.10;1.10;;;10.40;99.90;;;10.53;88.17;101083.94;4998219;28;20737;-66
2023/01/07 01:31:11;;;;;;;0.77;0.77;;;10.40;99.90;;;10.54;87.63;101088.19;5007419;28;20677;-65
2023/01/07 01:33:38;;;;;;;1.13;1.13;;;10.40;99.90;;;10.58;87.66;101087.09;4998825;28;20665;-66
2023/01/07 01:36:08;;;;;;;0.90;0.90;;;10.50;99.90;;;10.58;87.40;101091.47;5020036;28;20625;-65
2023/01/07 01:38:36;;;;;;;2.90;1.10;;;10.50;99.90;;;10.58;87.75;101091.47;5023294;28;20684;-66
2023/01/07 01:41:04;;;;;;;0.73;0.73;;;10.50;99.90;;;10.55;87.09;101079.44;5027550;28;20640;-65
2023/01/07 01:43:39;;;;;;;0.50;0.50;;;10.50;99.90;;;10.55;87.46;101082.06;5012807;28;20637;-66
2023/01/07 01:46:36;;;;;;;0.77;0.77;;;10.50;99.90;;;10.56;87.71;101086.31;4994335;28;20633;-65
2023/01/07 01:49:21;;;;;;;1.10;1.10;;;10.50;99.90;;;10.56;87.83;101077.69;5001132;28;20674;-66
2023/01/07 01:52:18;;;;;;;1.03;1.03;;;10.50;99.90;;;10.54;87.99;101075.16;4984630;28;20643;-66
2023/01/07 01:54:52;;;;;;;1.37;1.33;;;10.40;99.90;;;10.50;87.89;101078.91;5009898;28;20637;-66
2023/01/07 01:57:21;;;;;;;1.07;1.07;;;10.40;99.90;;;10.51;88.13;101074.53;4984565;28;20622;-66
2023/01/07 01:59:50;;;;;;;1.23;1.20;;;10.40;99.90;;;10.50;88.23;101067.66;5001529;28;21043;-65
2023/01/07 02:02:27;;;;;;;1.63;1.43;;;10.40;99.90;;;10.51;88.10;101074.53;5010457;28;20731;-66
2023/01/07 02:04:55;;;;;;;1.33;1.23;;;10.40;99.90;;;10.48;88.70;101070.34;5014031;28;20604;-66
2023/01/07 02:07:22;;;;;;;1.30;1.30;;;10.40;99.90;;;10.48;88.25;101062.50;5011716;28;20624;-66
2023/01/07 02:10:09;;;;;;;1.13;1.10;;;10.40;99.90;;;10.49;88.75;101068.56;5032178;28;20608;-66
2023/01/07 02:13:01;;;;;;;0.90;0.90;;;10.40;99.90;;;10.51;87.85;101064.94;5012698;28;20616;-66
2023/01/07 02:15:36;;;;;;;1.30;1.20;;;10.40;99.90;;;10.53;87.88;101057.00;4995304;28;21206;-66
2023/01/07 02:18:11;;;;;;;1.23;1.23;;;10.40;99.90;;;10.54;88.01;101056.88;5017920;28;20627;-65
2023/01/07 02:20:40;;;;;;;1.27;1.27;;;10.50;99.90;;;10.53;87.83;101057.84;5031133;28;20624;-66
2023/01/07 02:23:41;;;;;;;1.30;1.20;;;10.50;99.90;;;10.54;87.92;101051.66;5020887;28;21308;-66
2023/01/07 02:26:35;;;;;;;1.47;1.47;;;10.50;99.90;;;10.53;87.76;101047.41;5022035;28;20620;-66
2023/01/07 02:29:33;;;;;;;1.20;1.20;;;10.40;99.90;;;10.53;88.77;101044.78;5024539;28;21417;-65
2023/01/07 02:32:41;;;;;;;1.67;1.13;;;10.40;99.90;;;10.50;88.07;101039.75;5016710;28;20639;-66
2023/01/07 02:35:27;;;;;;;1.80;1.47;;;10.40;99.90;;;10.52;88.31;101040.50;4973591;28;20622;-66
2023/01/07 02:38:39;;;;;;;1.07;1.07;;;10.40;99.90;;;10.52;88.29;101045.72;4991351;28;20673;-66
2023/01/07 02:41:35;;;;;;;1.10;1.10;;;10.40;99.90;;;10.54;87.95;101038.63;4949831;28;20652;-65
2023/01/07 02:44:08;;;;;;;1.20;1.17;;;10.50;99.90;;;10.56;88.30;101033.34;5019720;28;20648;-66
2023/01/07 02:46:55;;;;;;;1.30;1.20;;;10.50;99.90;;;10.55;88.76;101032.47;4983991;28;20651;-66
2023/01/07 02:49:22;;;;;;;1.17;1.17;;;10.50;99.90;;;10.54;88.45;101022.16;5010991;28;20625;-66
2023/01/07 02:51:50;;;;;;;1.30;1.20;;;10.50;99.90;;;10.52;88.07;101027.44;5008521;28;20637;-65
2023/01/07 02:54:25;;;;;;;1.20;1.20;;;10.50;99.90;;;10.47;88.52;101018.28;5003421;28;20661;-69
2023/01/07 02:57:20;;;;;;;0.70;0.70;;;10.40;99.90;;;10.44;88.93;101021.91;5021689;28;20646;-68
2023/01/07 03:00:27;;;;;;;1.17;1.17;;;10.40;99.90;;;10.44;89.11;101015.84;5019484;28;20669;-68
2023/01/07 03:03:48;;;;;;;1.17;1.17;;;10.40;99.90;;;10.44;89.18;101008.88;5004098;28;20666;-67
2023/01/07 03:06:47;;;;;;;1.53;1.43;;;10.40;99.90;;;10.47;88.57;101003.47;5000508;28;20665;-67
2023/01/07 03:09:54;;;;;;;1.20;1.20;;;10.40;99.90;;;10.50;88.83;100998.03;5007550;28;20636;-68
2023/01/07 03:12:40;;;;;;;1.30;1.20;;;10.40;99.90;;;10.50;88.48;100992.00;5009627;28;21224;-67
2023/01/07 03:15:17;;;;;;;2.00;1.10;;;10.40;99.90;;;10.50;88.44;100994.59;5016645;28;20646;-67
2023/01/07 03:18:07;;;;;;;1.23;1.23;;;10.40;99.90;;;10.51;88.88;100991.88;4985927;28;20996;-67
2023/01/07 03:20:37;;;;;;;1.57;1.17;;;10.40;99.90;;;10.53;88.93;100990.00;5023215;28;20660;-70
2023/01/07 03:23:09;;;;;;;1.67;1.57;;;10.40;99.90;;;10.57;88.83;100991.47;4993234;28;21064;-67
2023/01/07 03:25:43;;;;;;;1.47;1.47;;;10.50;99.90;;;10.61;88.37;100992.09;4982278;28;20739;-70
2023/01/07 03:28:13;;;;;;;1.67;1.57;;;10.50;99.90;;;10.61;88.74;100986.88;4995449;28;20648;-67
2023/01/07 03:30:41;;;;;;;1.80;1.70;;;10.60;99.90;;;10.64;87.94;100997.13;4990536;28;21053;-70
2023/01/07 03:33:57;;;;;;;1.50;1.40;;;10.60;99.90;;;10.69;88.16;100985.44;5026677;28;21025;-67
2023/01/07 03:36:31;;;;;;;1.13;1.13;;;10.60;99.90;;;10.66;88.04;100983.03;4995533;28;20617;-67
2023/01/07 03:39:00;;;;;;;1.13;1.13;;;10.60;99.90;;;10.61;88.07;100969.44;4997546;28;20660;-68
2023/01/07 03:44:13;;;;;;;1.50;1.40;;;10.60;99.90;;;10.52;88.48;100977.88;5017209;28;21209;-67
2023/01/07 03:46:40;;;;;;;0.87;0.87;;;10.50;99.90;;;10.46;88.86;100974.84;5031472;28;20612;-67
2023/01/07 03:49:06;;;;;;;0.80;0.70;;;10.40;99.90;;;10.46;88.67;100972.22;5021880;28;21050;-68
2023/01/07 03:51:34;;;;;;;1.03;1.03;;;10.40;99.90;;;10.42;89.56;100966.38;5014383;28;20633;-66
2023/01/07 03:54:00;;;;;;;2.23;2.13;;;10.30;99.90;;;10.46;89.24;100982.66;5022487;28;20672;-69
2023/01/07 03:56:27;;;;;;;2.03;1.87;;;10.40;99.90;;;10.49;88.79;100970.28;5011285;28;21189;-68
2023/01/07 03:58:54;;;;;;;2.03;1.80;;;10.40;99.90;;;10.52;88.74;100964.03;5011060;28;20783;-67
2023/01/07 04:01:21;;;;;;;1.33;1.33;;;10.50;99.90;;;10.54;88.32;100965.56;5020090;28;20633;-69
2023/01/07 04:03:48;;;;;;;1.70;1.60;;;10.50;99.90;;;10.56;88.13;100955.88;5034014;28;20640;-67
2023/01/07 04:06:15;;;;;;;2.00;1.90;;;10.50;99.90;;;10.60;88.56;100959.13;5012209;28;20671;-69
2023/01/07 04:08:42;;;;;;;1.20;1.10;;;10.50;99.90;;;10.61;88.91;100952.94;5029092;28;20624;-68
2023/01/07 04:11:09;;;;;;;1.47;1.40;;;10.60;99.90;;;10.56;88.29;100947.22;5005748;28;20737;-69
2023/01/07 04:13:36;;;;;;;1.57;1.47;;;10.50;99.90;;;10.49;89.33;100954.63;5032961;28;20643;-67
2023/01/07 04:16:03;;;;;;;1.40;1.37;;;10.40;99.90;;;10.49;89.15;100948.56;5015701;28;20636;-69
2023/01/07 04:18:30;;;;;;;1.10;1.10;;;10.40;99.90;;;10.48;89.06;100945.09;4987439;28;20985;-67
2023/01/07 04:20:57;;;;;;;1.50;1.40;;;10.40;99.90;;;10.42;89.12;100942.91;4982005;28;20661;-67
2023/01/07 04:23:24;;;;;;;0.80;0.80;;;10.40;99.90;;;10.42;89.51;100935.09;5020216;28;20667;-67
2023/01/07 04:25:50;;;;;;;0.70;0.70;;;10.40;99.90;;;10.43;90.00;100936.78;4996103;28;20617;-67
2023/01/07 04:28:17;;;;;;;2.47;1.40;;;10.30;99.90;;;10.43;90.16;100931.56;5007434;28;20625;-69
2023/01/07 04:30:44;;;;;;;1.43;1.37;;;10.40;99.90;;;10.45;89.40;100934.06;4997640;28;20627;-67
2023/01/07 04:33:11;;;;;;;1.20;1.20;;;10.30;99.90;;;10.45;89.31;100934.06;5027803;28;20714;-69
2023/01/07 04:35:39;;;;;;;2.23;2.13;;;10.40;99.90;;;10.48;89.51;100929.47;5028421;28;20629;-67
2023/01/07 04:38:06;;;;;;;1.20;1.20;;;10.40;99.90;;;10.51;89.23;100924.03;4988934;28;20638;-68
2023/01/07 04:40:33;;;;;;;1.40;1.40;;;10.40;99.90;;;10.49;89.30;100920.72;5008064;28;20659;-66
2023/01/07 04:43:00;;;;;;;2.80;1.70;;;10.40;99.90;;;10.47;89.52;100922.59;4996966;28;20650;-67
2023/01/07 04:45:27;;;;;;;0.87;0.87;;;10.40;99.90;;;10.46;89.95;100915.69;4990190;28;20621;-68
2023/01/07 04:47:55;;;;;;;1.30;1.30;;;10.40;99.90;;;10.44;89.24;100914.94;5008905;28;20638;-69
2023/01/07 04:50:23;;;;;;;3.07;1.60;;;10.40;99.90;;;10.43;90.30;100915.06;4993269;28;21099;-68
2023/01/07 04:52:50;;;;;;;1.40;1.30;;;10.40;99.90;;;10.44;90.16;100911.50;5005705;28;20665;-70
2023/01/07 04:55:17;;;;;;;1.67;1.57;;;10.30;99.90;;;10.44;90.47;100914.94;5012911;28;20639;-68
2023/01/07 04:57:44;;;;;;;5.80;2.00;;;10.30;99.90;;;10.49;90.29;100915.50;5015015;28;20640;-70
2023/01/07 05:00:11;;;;;;;2.03;1.83;;;10.40;99.90;;;10.50;90.20;100911.94;5027617;28;21239;-68
2023/01/07 05:02:38;;;;;;;1.53;1.47;;;10.40;99.90;;;10.49;89.87;100907.66;5013859;28;20623;-68
2023/01/07 05:05:06;;;;;;;1.43;1.33;;;10.40;99.90;;;10.48;90.24;100905.97;5011123;28;20640;-67
2023/01/07 05:07:33;;;;;;;1.37;1.30;;;10.40;99.90;;;10.46;90.08;100902.63;5016033;28;20640;-68
2023/01/07 05:10:00;;;;;;;1.53;1.40;;;10.40;99.90;;;10.49;89.58;100901.59;5021492;28;20640;-67
2023/01/07 05:12:26;;;;;;;1.60;1.50;;;10.40;99.90;;;10.51;90.40;100902.34;5006705;28;20637;-68
2023/01/07 05:14:53;;;;;;;0.40;0.40;;;10.40;99.90;;;10.47;90.32;100896.50;5010871;28;21196;-67
2023/01/07 05:17:20;;;;;;;1.63;1.60;;;10.40;99.90;;;10.48;89.97;100892.09;5011864;28;20641;-69
2023/01/07 05:19:47;;;;;;;1.80;1.70;;;10.40;99.90;;;10.48;90.43;100890.31;5023064;28;20997;-67
2023/01/07 05:22:14;;;;;;;1.37;1.30;;;10.40;99.90;;;10.41;90.63;100883.03;5015609;28;20985;-69
2023/01/07 05:24:41;;;;;;;1.50;1.50;;;10.40;99.90;;;10.40;90.75;100884.78;5015191;28;20686;-68
2023/01/07 05:27:08;;;;;;;1.67;1.57;;;10.40;99.90;;;10.41;90.97;100883.03;5002065;28;20640;-67
2023/01/07 05:29:35;;;;;;;1.73;1.63;;;10.30;99.90;;;10.42;91.30;100879.47;5007826;28;20628;-68
2023/01/07 05:32:02;;;;;;;3.10;1.60;;;10.30;99.90;;;10.41;90.82;100888.25;5003304;28;20625;-67
2023/01/07 05:34:29;;;;;;;1.37;1.27;;;10.30;99.90;;;10.39;91.10;100877.88;4994180;28;21276;-70
2023/01/07 05:36:56;;;;;;;2.00;1.63;;;10.30;99.90;;;10.40;91.10;100868.31;5004555;28;21012;-67
2023/01/07 05:39:23;;;;;;;1.70;1.60;;;10.30;99.90;;;10.33;91.59;100865.25;5020973;28;20664;-67
2023/01/07 05:41:50;;;;;;;1.83;1.60;;;10.30;99.90;;;10.35;91.11;100867.78;5014103;28;21041;-66
2023/01/07 05:44:17;;;;;;;1.53;1.53;;;10.30;99.90;;;10.33;91.33;100867.06;5028953;28;20641;-69
2023/01/07 05:46:44;;;;;;;0.60;0.53;;;10.30;99.90;;;10.30;91.85;100857.66;5032247;28;20619;-67
2023/01/07 05:49:12;;;;;;;1.23;1.10;;;10.20;99.90;;;10.31;91.20;100851.50;5015800;28;20687;-68
2023/01/07 05:51:38;;;;;;;1.90;1.70;;;10.20;99.90;;;10.33;91.59;100862.66;5012074;28;20651;-67
2023/01/07 05:54:06;;;;;;;2.30;1.83;;;10.30;99.90;;;10.31;91.80;100856.72;5015588;28;20664;-67
2023/01/07 05:56:33;;;;;;;0.77;0.77;;;10.30;99.90;;;10.29;91.88;100861.19;5006451;28;20617;-68
2023/01/07 05:59:00;;;;;;;1.43;1.33;;;10.20;99.90;;;10.28;92.26;100856.94;5016325;28;20647;-67
2023/01/07 06:01:27;;;;;;;1.30;1.30;;;10.20;99.90;;;10.24;92.71;100855.47;5021486;28;21230;-70
2023/01/07 06:03:54;;;;;;;1.87;1.47;;;10.20;99.90;;;10.26;92.34;100863.19;5025386;28;20644;-67
2023/01/07 06:06:21;;;;;;;1.00;0.93;;;10.10;99.90;;;10.26;92.12;100853.59;5018926;28;20622;-67
2023/01/07 06:08:48;;;;;;;1.00;1.00;;;10.20;99.90;;;10.23;92.85;100853.78;5012500;28;20624;-68
2023/01/07 06:11:15;;;;;;;0.93;0.93;;;10.10;99.90;;;10.24;92.47;100858.09;5018102;28;20641;-67
2023/01/07 06:13:41;;;;;;;1.00;1.00;;;10.20;99.90;;;10.24;92.29;100858.09;4990993;28;21073;-67
2023/01/07 06:16:09;;;;;;;2.07;1.97;;;10.20;99.90;;;10.24;92.78;100852.88;4993502;28;20626;-68
2023/01/07 06:18:36;;;;;;;2.70;1.40;;;10.10;99.90;;;10.25;93.07;100846.69;4990307;28;21114;-67
2023/01/07 06:21:03;;;;;;;2.00;1.53;;;10.20;99.90;;;10.24;92.70;100847.66;5029076;28;20653;-67
2023/01/07 06:23:30;;;;;;;1.90;1.73;;;10.20;99.90;;;10.25;92.96;100848.47;5014141;28;20636;-66
2023/01/07 06:25:57;;;;;;;1.60;1.60;;;10.20;99.90;;;10.24;92.44;100842.44;5013590;28;20621;-67
2023/01/07 06:28:24;;;;;;;1.17;1.17;;;10.20;99.90;;;10.25;92.80;100848.47;5010452;28;20641;-68
2023/01/07 06:30:51;;;;;;;1.43;1.43;;;10.20;99.90;;;10.23;92.88;100843.34;5020834;28;20634;-67
2023/01/07 06:33:18;;;;;;;1.87;1.77;;;10.10;99.90;;;10.24;92.69;100841.59;4995234;28;20657;-71
2023/01/07 06:35:45;;;;;;;1.70;1.50;;;10.20;99.90;;;10.24;92.60;100833.78;5016436;28;20668;-67
2023/01/07 06:38:12;;;;;;;1.60;1.50;;;10.10;99.90;;;10.26;93.13;100835.34;5027168;28;20629;-69
2023/01/07 06:40:39;;;;;;;2.50;1.60;;;10.20;99.90;;;10.29;93.03;100829.91;5010184;28;20662;-67
2023/01/07 06:43:06;;;;;;;1.53;1.20;;;10.20;99.90;;;10.30;92.55;100821.16;5013584;28;20625;-69
2023/01/07 06:45:33;;;;;;;1.33;1.27;;;10.20;99.90;;;10.31;92.49;100814.19;5010333;28;20630;-67
2023/01/07 06:48:00;;;;;;;2.13;2.03;;;10.20;99.90;;;10.30;92.07;100813.34;5010225;28;20929;-71
2023/01/07 06:50:27;;;;;;;1.77;1.67;;;10.30;99.90;;;10.32;91.85;100808.00;5025459;28;21245;-67
2023/01/07 06:52:55;;;;;;;1.90;1.80;;;10.30;99.90;;;10.33;92.13;100818.31;5012665;28;20675;-67
2023/01/07 06:55:22;;;;;;;1.60;1.40;;;10.30;99.90;;;10.30;92.05;100804.66;5013420;28;20723;-70
2023/01/07 06:57:49;;;;;;;1.80;1.70;;;10.20;99.90;;;10.27;92.30;100805.69;5015074;28;20747;-67
2023/01/07 07:00:17;;;;;;;1.73;1.63;;;10.20;99.90;;;10.27;92.46;100805.69;5016654;28;20671;-67
2023/01/07 07:02:44;;;;;;;1.60;1.50;;;10.20;99.90;;;10.30;92.03;100796.84;5026035;28;21526;-66
2023/01/07 07:05:11;;;;;;;1.40;1.40;;;10.20;99.90;;;10.29;91.97;100795.16;5004334;28;21014;-67
2023/01/07 07:07:38;;;;;;;2.70;1.97;;;10.30;99.90;;;10.32;92.05;100793.19;5030264;28;20623;-70
2023/01/07 07:10:07;;;;;;;2.13;1.93;;;10.30;99.90;;;10.35;91.90;100798.19;5006393;28;20634;-68
2023/01/07 07:12:35;;;;;;;2.30;2.20;;;10.30;99.90;;;10.36;91.94;100796.41;5004025;28;20645;-67
2023/01/07 07:15:04;;;;;;;1.93;1.83;;;10.30;99.90;;;10.37;92.33;100800.72;5003391;28;20641;-71
2023/01/07 07:17:31;;;;;;;7.60;2.07;;;10.30;99.90;;;10.35;91.59;100794.75;4994589;28;20621;-67
2023/01/07 07:19:58;;;;;;;1.40;1.30;;;10.30;99.90;;;10.34;92.01;100790.47;5001973;28;20665;-67
2023/01/07 07:22:25;;;;;;;1.90;1.80;;;10.30;99.90;;;10.32;92.40;100792.34;5000199;28;20633;-69
2023/01/07 07:24:52;;;;;;;1.87;1.77;;;10.30;99.90;;;10.34;91.87;100780.03;5025654;28;20625;-67
2023/01/07 07:27:19;;;;;;;2.03;1.93;;;10.30;99.90;;;10.34;91.87;100791.31;5021558;28;20640;-67
2023/01/07 07:29:45;;;;;;;2.10;2.00;;;10.30;99.90;;;10.34;92.21;100790.47;5019314;28;21064;-67
2023/01/07 07:32:12;;;;;;;2.33;2.17;;;10.30;99.90;;;10.33;92.52;100778.38;5010074;28;20628;-68
2023/01/07 07:34:39;;;;;;;1.87;1.77;;;10.30;99.90;;;10.32;92.06;100781.91;5021140;28;20664;-68
2023/01/07 07:37:06;;;;;;;1.90;1.80;;;10.30;99.90;;;10.31;91.39;100781.06;5027405;28;20621;-67
2023/01/07 07:39:33;;;;;;;2.10;1.80;;;10.30;99.90;;;10.34;91.30;100780.03;5020811;28;20637;-67
2023/01/07 07:42:04;;;;;;;1.87;1.70;;;10.30;99.90;;;10.33;91.41;100786.22;5023516;28;20637;-67
2023/01/07 07:44:31;;;;;;;1.30;1.20;;;10.30;99.90;;;10.25;90.72;100778.91;5027955;28;21289;-67
2023/01/07 07:46:58;;;;;;;1.03;1.00;;;10.20;99.90;;;10.24;90.62;100771.19;5030393;28;20613;-67
2023/01/07 07:49:25;;;;;;;0.93;0.80;;;10.20;99.90;;;10.20;90.32;100772.34;5006924;28;20623;-67
2023/01/07 07:51:52;;;;;;;1.20;1.10;;;10.20;99.90;;;10.18;91.06;100764.59;4998425;28;20648;-66
2023/01/07 07:54:19;;;;;;;0.73;0.73;;;10.10;99.90;;;10.19;91.07;100761.06;5018718;28;21054;-67
2023/01/07 07:56:49;;;;;;;1.03;1.03;;;10.10;99.90;;;10.19;90.75;100760.22;5027245;28;20636;-67
2023/01/07 07:59:16;;;;;;;0.77;0.77;;;10.10;99.90;;;10.21;90.32;100759.19;5020256;28;21224;-70
2023/01/07 08:01:43;;;;;;;1.00;1.00;;;10.10;99.90;;;10.23;90.40;100769.50;5019781;28;20672;-68
2023/01/07 08:04:10;;;;;;;0.90;0.77;;;10.10;99.90;;;10.21;90.02;100764.41;5024994;28;21275;-67
2023/01/07 08:06:37;;;;;;;2.03;1.20;;;10.20;99.90;;;10.20;90.33;100746.25;5005821;28;20633;-67
2023/01/07 08:09:04;;;;;;;1.40;1.30;;;10.20;99.90;;;10.15;90.19;100751.78;4992499;28;21048;-68
2023/01/07 08:11:31;;;;;;;2.40;1.00;;;10.10;99.90;;;10.12;90.19;100754.59;5000826;28;21057;-67
2023/01/07 08:13:58;;;;;;;1.17;1.17;;;10.10;99.90;;;10.14;89.96;100752.72;4992534;28;20656;-70
2023/01/07 08:16:25;;;;;;;0.80;0.80;;;10.00;99.90;;;10.14;89.82;100747.50;4981432;28;20633;-68
2023/01/07 08:18:52;;;;;;;1.30;1.20;;;10.10;99.90;;;10.13;89.43;100746.69;5014607;28;21229;-68
2023/01/07 08:21:19;;;;;;;1.00;1.00;;;10.10;99.90;;;10.14;89.20;100750.09;5003184;28;21134;-66
2023/01/07 08:23:46;;;;;;;1.00;1.00;;;10.10;99.90;;;10.15;89.49;100746.56;5016311;28;20644;-70
2023/01/07 08:26:13;;;;;;;1.20;1.20;;;10.10;99.90;;;10.14;89.22;100742.28;4999456;28;20615;-68
2023/01/07 08:28:40;;;;;;;0.97;0.97;;;10.10;99.90;;;10.17;89.48;100736.03;5019639;28;20721;-66
2023/01/07 08:31:07;;;;;;;0.90;0.90;;;10.10;99.90;;;10.24;88.69;100732.91;5012483;28;20649;-67
2023/01/07 08:33:37;;;;;;;1.03;1.03;;;10.20;99.90;;;10.25;88.91;100738.94;5002013;28;20710;-67
2023/01/07 08:36:07;;;;;;;1.30;1.20;;;10.20;99.90;;;10.25;87.85;100739.78;5006266;28;20692;-68
2023/01/07 08:38:51;;;;;;;0.80;0.80;;;10.20;99.90;;;10.28;87.64;100734.38;4999216;28;20662;-67
2023/01/07 08:41:22;;;;;;;1.90;1.30;;;10.20;99.90;;;10.28;87.30;100736.97;4992084;28;20665;-66
2023/01/07 08:43:49;;;;;;;1.10;1.10;;;10.20;99.90;;;10.33;86.99;100732.25;4997003;28;20641;-67
2023/01/07 08:46:16;;;;;;;1.67;1.13;;;10.30;99.90;;;10.39;86.96;100737.03;5021245;28;20632;-67
2023/01/07 08:48:43;;;;;;;1.37;1.37;;;10.30;99.90;;;10.42;86.63;100734.22;5017372;28;20720;-67
2023/01/07 08:51:10;;;;;;;0.60;0.60;;;10.40;99.90;;;10.44;86.51;100739.34;5012433;28;20616;-66
2023/01/07 08:53:37;;;;;;;0.93;0.93;;;10.40;99.90;;;10.45;85.90;100734.03;5034010;22;20695;-69
2023/01/07 08:56:03;;;;;;;0.90;0.90;;;10.40;99.90;;;10.47;86.20;100724.31;5044687;28;20616;-67
2023/01/07 08:58:30;;;;;;;1.10;1.10;;;10.40;99.90;;;10.51;86.39;100728.38;5042712;28;20710;-66
2023/01/07 09:01:04;;;;;;;0.93;0.93;;;10.40;99.90;;;10.54;85.29;100725.53;5045540;28;20655;-67
2023/01/07 09:03:32;;;;;;;1.83;1.07;;;10.50;99.90;;;10.57;85.29;100721.88;5031533;28;20643;-67
2023/01/07 09:05:59;;;;;;;1.33;1.00;;;10.50;99.90;;;10.59;84.74;100710.41;5008924;28;20644;-67
2023/01/07 09:08:25;;;;;;;1.00;0.80;;;10.50;99.90;;;10.62;84.84;100715.41;5014347;28;20638;-66
2023/01/07 09:10:52;;;;;;;1.50;1.23;;;10.60;99.90;;;10.63;85.02;100705.78;5049751;28;20623;-66
2023/01/07 09:13:19;;;;;;;0.80;0.80;;;10.60;99.90;;;10.65;84.27;100701.28;5028265;28;21322;-67
2023/01/07 09:15:46;;;;;;;1.53;1.40;;;10.60;99.90;;;10.64;84.45;100703.09;5034055;28;20623;-67
2023/01/07 09:18:13;;;;;;;1.97;1.50;;;10.60;99.90;;;10.66;83.99;100701.22;4994207;28;21247;-70
2023/01/07 09:20:40;;;;;;;1.30;1.27;;;10.60;99.90;;;10.73;82.82;100693.78;5032718;28;20656;-66
2023/01/07 09:23:07;;;;;;;0.93;0.93;;;10.60;99.90;;;10.76;83.20;100693.53;5026317;28;21220;-66
2023/01/07 09:25:33;;;;;;;1.67;1.17;;;10.70;99.90;;;10.78;82.65;100687.28;5045044;28;21003;-67
2023/01/07 09:28:00;;;;;;;1.23;1.13;;;10.70;99.90;;;10.76;82.87;100683.09;5040035;28;20663;-70
2023/01/07 09:30:27;;;;;;;1.80;1.70;;;10.70;99.90;;;10.82;81.64;100688.72;5035444;28;20950;-69
2023/01/07 09:32:54;;;;;;;1.17;1.17;;;10.80;99.90;;;10.90;80.71;100681.16;5037956;28;20636;-69
2023/01/07 09:35:21;;;;;;;0.67;0.67;;;10.80;99.90;;;11.00;79.73;100683.13;5036457;28;21047;-69
2023/01/07 09:37:50;;;;;;;0.37;0.37;;;10.90;99.90;;;11.04;79.36;100676.72;5032052;28;20674;-67
2023/01/07 09:40:33;;;;;;;0.67;0.67;;;10.90;99.90;;;11.13;77.76;100668.22;4999853;28;20707;-66
2023/01/07 09:43:27;;;;;;;0.30;0.30;;;11.00;99.90;;;11.20;77.24;100664.22;5034656;28;21019;-64
2023/01/07 09:46:17;;;;;;;0.67;0.50;;;11.10;99.90;;;11.29;76.39;100661.75;5039175;28;20647;-65
2023/01/07 09:48:50;;;;;;;0.70;0.70;;;11.20;99.90;;;11.38;75.58;100662.84;5003271;28;20644;-68
2023/01/07 09:52:06;;;;;;;0.63;0.63;;;11.30;99.90;;;11.43;75.22;100669.41;5018184;28;20639;-67
2023/01/07 09:54:36;;;;;;;0.60;0.60;;;11.40;99.90;;;11.50;74.58;100669.75;5042279;28;20712;-70
2023/01/07 09:57:04;;;;;;;0.50;0.50;;;11.40;99.90;;;11.50;74.29;100661.91;5037103;28;21191;-67
2023/01/07 09:59:31;;;;;;;0.70;0.70;;;11.40;99.90;;;11.57;73.96;100674.41;5036988;28;20636;-65
2023/01/07 10:02:21;;;;;;;0.50;0.50;;;11.50;99.90;;;11.72;72.63;100661.16;5009404;28;21275;-65
2023/01/07 10:05:01;;;;;;;0.50;0.50;;;11.60;99.90;;;11.71;72.76;100662.13;5007935;28;20657;-65
2023/01/07 10:07:54;;;;;;;0.40;0.40;;;11.60;99.90;;;11.74;72.87;100667.94;5022025;28;20636;-70
2023/01/07 10:11:02;;;;;;;0.50;0.50;;;11.60;99.90;;;11.83;72.34;100664.63;5017338;28;20640;-67
2023/01/07 10:13:51;;;;;;;0.40;0.40;;;11.70;99.90;;;11.87;72.43;100658.22;5013544;28;21207;-66
2023/01/07 10:17:06;;;;;;;0.83;0.50;;;11.80;99.90;;;11.87;72.15;100658.22;5026428;28;21234;-67
2023/01/07 10:19:49;;;;;;;0.50;0.50;;;11.80;99.90;;;11.82;72.19;100655.09;5043626;28;20640;-66
2023/01/07 10:22:28;;;;;;;0.40;0.40;;;11.80;99.90;;;11.78;72.55;100648.44;5001451;28;21057;-66
2023/01/07 10:25:13;;;;;;;0.40;0.40;;;11.70;99.90;;;11.79;72.35;100646.69;4995130;28;20750;-66
2023/01/07 10:27:45;;;;;;;0.40;0.40;;;11.70;99.90;;;11.85;72.28;100643.59;5023752;28;20983;-66
2023/01/07 10:30:26;;;;;;;0.50;0.50;;;11.70;99.90;;;11.87;72.35;100637.31;5010352;28;21263;-65
2023/01/07 10:33:10;;;;;;;0.67;0.63;;;11.80;99.90;;;12.00;72.91;100630.19;5000053;28;20686;-65
2023/01/07 10:35:40;;;;;;;0.30;0.30;;;11.90;99.90;;;11.91;72.03;100617.81;5017728;28;21019;-68
2023/01/07 10:38:18;;;;;;;0.53;0.53;;;11.90;99.90;;;11.91;71.11;100611.75;5035473;28;21191;-65
2023/01/07 10:40:45;;;;;;;0.70;0.70;;;11.80;99.90;;;11.93;71.07;100608.06;5022109;28;20665;-65